sensor_id;sensor_type;location;lat;lon;timestamp;P1;durP1;ratioP1;P2;durP2;ratioP2
12356;SDS011;6243;51.244;6.774;2023-04-01T00:00:01;2.47;;;0.90;;
12356;SDS011;6243;51.244;6.774;2023-04-01T00:02:26;3.67;;;1.20;;
12356;SDS011;6243;51.244;6.774;2023-04-01T00:04:53;3.43;;;0.90;;
12356;SDS011;6243;51.244;6.774;2023-04-01T00:07:18;3.30;;;1.23;;
12356;SDS011;6243;51.244;6.774;2023-04-01T00:09:44;2.27;;;1.30;;
12356;SDS011;6243;51.244;6.774;2023-04-01T00:12:09;3.77;;;0.97;;
12356;SDS011;6243;51.244;6.774;2023-04-01T00:14:35;2.73;;;0.97;;
12356;SDS011;6243;51.244;6.774;2023-04-01T00:17:00;3.17;;;1.20;;
12356;SDS011;6243;51.244;6.774;2023-04-01T00:19:26;3.50;;;1.20;;
12356;SDS011;6243;51.244;6.774;2023-04-01T00:21:53;2.70;;;0.97;;
12356;SDS011;6243;51.244;6.774;2023-04-01T00:24:18;1.83;;;0.73;;
12356;SDS011;6243;51.244;6.774;2023-04-01T00:26:44;2.77;;;1.13;;
12356;SDS011;6243;51.244;6.774;2023-04-01T00:29:09;1.30;;;0.90;;
12356;SDS011;6243;51.244;6.774;2023-04-01T00:31:35;1.97;;;0.77;;
12356;SDS011;6243;51.244;6.774;2023-04-01T00:34:00;1.70;;;0.93;;
12356;SDS011;6243;51.244;6.774;2023-04-01T00:36:26;0.93;;;0.70;;
12356;SDS011;6243;51.244;6.774;2023-04-01T00:38:53;1.53;;;0.60;;
12356;SDS011;6243;51.244;6.774;2023-04-01T00:41:18;1.80;;;0.87;;
12356;SDS011;6243;51.244;6.774;2023-04-01T00:43:45;1.30;;;0.53;;
12356;SDS011;6243;51.244;6.774;2023-04-01T00:46:12;1.20;;;0.70;;
12356;SDS011;6243;51.244;6.774;2023-04-01T00:48:38;1.60;;;0.57;;
12356;SDS011;6243;51.244;6.774;2023-04-01T00:51:07;1.53;;;0.80;;
12356;SDS011;6243;51.244;6.774;2023-04-01T00:53:36;3.20;;;0.90;;
12356;SDS011;6243;51.244;6.774;2023-04-01T00:56:07;1.93;;;0.60;;
12356;SDS011;6243;51.244;6.774;2023-04-01T00:58:38;0.80;;;0.60;;
12356;SDS011;6243;51.244;6.774;2023-04-01T01:01:08;0.90;;;0.47;;
12356;SDS011;6243;51.244;6.774;2023-04-01T01:03:34;1.77;;;0.57;;
12356;SDS011;6243;51.244;6.774;2023-04-01T01:06:10;1.57;;;0.60;;
12356;SDS011;6243;51.244;6.774;2023-04-01T01:08:43;1.83;;;0.60;;
12356;SDS011;6243;51.244;6.774;2023-04-01T01:11:28;1.20;;;0.70;;
12356;SDS011;6243;51.244;6.774;2023-04-01T01:14:01;2.97;;;0.83;;
12356;SDS011;6243;51.244;6.774;2023-04-01T01:16:36;3.20;;;0.60;;
12356;SDS011;6243;51.244;6.774;2023-04-01T01:19:08;2.27;;;0.70;;
12356;SDS011;6243;51.244;6.774;2023-04-01T01:21:50;2.17;;;0.60;;
12356;SDS011;6243;51.244;6.774;2023-04-01T01:24:51;3.07;;;1.07;;
12356;SDS011;6243;51.244;6.774;2023-04-01T01:27:30;1.83;;;0.73;;
12356;SDS011;6243;51.244;6.774;2023-04-01T01:30:10;0.83;;;0.40;;
12356;SDS011;6243;51.244;6.774;2023-04-01T01:32:44;2.40;;;0.83;;
12356;SDS011;6243;51.244;6.774;2023-04-01T01:35:29;2.00;;;0.77;;
12356;SDS011;6243;51.244;6.774;2023-04-01T01:37:58;1.10;;;0.60;;
12356;SDS011;6243;51.244;6.774;2023-04-01T01:40:26;1.37;;;0.60;;
12356;SDS011;6243;51.244;6.774;2023-04-01T01:42:55;3.37;;;0.67;;
12356;SDS011;6243;51.244;6.774;2023-04-01T01:45:24;2.07;;;0.60;;
12356;SDS011;6243;51.244;6.774;2023-04-01T01:47:52;1.17;;;0.57;;
12356;SDS011;6243;51.244;6.774;2023-04-01T01:50:20;2.23;;;0.70;;
12356;SDS011;6243;51.244;6.774;2023-04-01T01:52:48;2.80;;;0.70;;
12356;SDS011;6243;51.244;6.774;2023-04-01T01:55:24;3.23;;;0.80;;
12356;SDS011;6243;51.244;6.774;2023-04-01T01:57:52;2.47;;;0.70;;
12356;SDS011;6243;51.244;6.774;2023-04-01T02:00:19;2.10;;;0.80;;
12356;SDS011;6243;51.244;6.774;2023-04-01T02:02:46;1.60;;;0.73;;
12356;SDS011;6243;51.244;6.774;2023-04-01T02:05:14;2.47;;;0.60;;
12356;SDS011;6243;51.244;6.774;2023-04-01T02:07:42;1.30;;;0.57;;
12356;SDS011;6243;51.244;6.774;2023-04-01T02:10:14;1.43;;;0.83;;
12356;SDS011;6243;51.244;6.774;2023-04-01T02:12:40;1.33;;;0.50;;
12356;SDS011;6243;51.244;6.774;2023-04-01T02:15:10;0.73;;;0.50;;
12356;SDS011;6243;51.244;6.774;2023-04-01T02:17:39;2.00;;;0.67;;
12356;SDS011;6243;51.244;6.774;2023-04-01T02:20:09;2.20;;;0.70;;
12356;SDS011;6243;51.244;6.774;2023-04-01T02:22:38;2.23;;;0.87;;
12356;SDS011;6243;51.244;6.774;2023-04-01T02:25:07;1.37;;;0.60;;
12356;SDS011;6243;51.244;6.774;2023-04-01T02:27:37;2.17;;;0.70;;
12356;SDS011;6243;51.244;6.774;2023-04-01T02:30:03;0.97;;;0.50;;
12356;SDS011;6243;51.244;6.774;2023-04-01T02:32:30;0.77;;;0.60;;
12356;SDS011;6243;51.244;6.774;2023-04-01T02:34:58;1.23;;;0.60;;
12356;SDS011;6243;51.244;6.774;2023-04-01T02:37:24;1.17;;;0.70;;
12356;SDS011;6243;51.244;6.774;2023-04-01T02:39:50;0.70;;;0.53;;
12356;SDS011;6243;51.244;6.774;2023-04-01T02:42:15;0.93;;;0.60;;
12356;SDS011;6243;51.244;6.774;2023-04-01T02:44:42;0.80;;;0.60;;
12356;SDS011;6243;51.244;6.774;2023-04-01T02:47:08;2.73;;;0.77;;
12356;SDS011;6243;51.244;6.774;2023-04-01T02:49:33;1.90;;;0.60;;
12356;SDS011;6243;51.244;6.774;2023-04-01T02:51:59;0.50;;;0.40;;
12356;SDS011;6243;51.244;6.774;2023-04-01T02:54:25;2.93;;;0.80;;
12356;SDS011;6243;51.244;6.774;2023-04-01T02:56:50;1.07;;;0.60;;
12356;SDS011;6243;51.244;6.774;2023-04-01T02:59:16;1.00;;;0.50;;
12356;SDS011;6243;51.244;6.774;2023-04-01T03:01:43;1.40;;;0.60;;
12356;SDS011;6243;51.244;6.774;2023-04-01T03:04:08;1.23;;;0.60;;
12356;SDS011;6243;51.244;6.774;2023-04-01T03:06:34;1.50;;;0.43;;
12356;SDS011;6243;51.244;6.774;2023-04-01T03:08:59;1.70;;;0.63;;
12356;SDS011;6243;51.244;6.774;2023-04-01T03:11:25;0.73;;;0.50;;
12356;SDS011;6243;51.244;6.774;2023-04-01T03:13:50;0.50;;;0.40;;
12356;SDS011;6243;51.244;6.774;2023-04-01T03:16:16;1.23;;;0.77;;
12356;SDS011;6243;51.244;6.774;2023-04-01T03:18:42;0.50;;;0.47;;
12356;SDS011;6243;51.244;6.774;2023-04-01T03:21:14;0.97;;;0.40;;
12356;SDS011;6243;51.244;6.774;2023-04-01T03:23:41;1.97;;;0.43;;
12356;SDS011;6243;51.244;6.774;2023-04-01T03:26:07;1.27;;;0.50;;
12356;SDS011;6243;51.244;6.774;2023-04-01T03:28:32;1.60;;;0.50;;
12356;SDS011;6243;51.244;6.774;2023-04-01T03:30:58;0.93;;;0.50;;
12356;SDS011;6243;51.244;6.774;2023-04-01T03:33:23;0.87;;;0.53;;
12356;SDS011;6243;51.244;6.774;2023-04-01T03:35:50;1.40;;;0.57;;
12356;SDS011;6243;51.244;6.774;2023-04-01T03:38:15;0.87;;;0.30;;
12356;SDS011;6243;51.244;6.774;2023-04-01T03:40:41;0.13;;;0.13;;
12356;SDS011;6243;51.244;6.774;2023-04-01T03:43:07;0.30;;;0.30;;
12356;SDS011;6243;51.244;6.774;2023-04-01T03:45:32;0.93;;;0.43;;
12356;SDS011;6243;51.244;6.774;2023-04-01T03:47:58;1.10;;;0.57;;
12356;SDS011;6243;51.244;6.774;2023-04-01T03:50:23;0.93;;;0.30;;
12356;SDS011;6243;51.244;6.774;2023-04-01T03:52:50;1.30;;;0.57;;
12356;SDS011;6243;51.244;6.774;2023-04-01T03:55:16;2.13;;;0.50;;
12356;SDS011;6243;51.244;6.774;2023-04-01T03:57:41;1.20;;;0.70;;
12356;SDS011;6243;51.244;6.774;2023-04-01T04:00:07;1.07;;;0.20;;
12356;SDS011;6243;51.244;6.774;2023-04-01T04:02:34;0.57;;;0.50;;
12356;SDS011;6243;51.244;6.774;2023-04-01T04:04:59;0.43;;;0.30;;
12356;SDS011;6243;51.244;6.774;2023-04-01T04:07:25;0.90;;;0.63;;
12356;SDS011;6243;51.244;6.774;2023-04-01T04:09:52;1.70;;;0.60;;
12356;SDS011;6243;51.244;6.774;2023-04-01T04:12:17;0.80;;;0.37;;
12356;SDS011;6243;51.244;6.774;2023-04-01T04:14:43;0.60;;;0.50;;
12356;SDS011;6243;51.244;6.774;2023-04-01T04:17:09;1.00;;;0.60;;
12356;SDS011;6243;51.244;6.774;2023-04-01T04:19:35;0.63;;;0.43;;
12356;SDS011;6243;51.244;6.774;2023-04-01T04:22:00;1.00;;;0.80;;
12356;SDS011;6243;51.244;6.774;2023-04-01T04:24:26;0.87;;;0.53;;
12356;SDS011;6243;51.244;6.774;2023-04-01T04:26:53;1.17;;;0.40;;
12356;SDS011;6243;51.244;6.774;2023-04-01T04:29:18;0.70;;;0.40;;
12356;SDS011;6243;51.244;6.774;2023-04-01T04:31:44;0.73;;;0.50;;
12356;SDS011;6243;51.244;6.774;2023-04-01T04:34:09;1.23;;;0.70;;
12356;SDS011;6243;51.244;6.774;2023-04-01T04:36:35;0.50;;;0.50;;
12356;SDS011;6243;51.244;6.774;2023-04-01T04:39:00;0.73;;;0.47;;
12356;SDS011;6243;51.244;6.774;2023-04-01T04:41:26;0.53;;;0.53;;
12356;SDS011;6243;51.244;6.774;2023-04-01T04:43:53;0.30;;;0.30;;
12356;SDS011;6243;51.244;6.774;2023-04-01T04:46:20;0.83;;;0.60;;
12356;SDS011;6243;51.244;6.774;2023-04-01T04:48:46;0.70;;;0.57;;
12356;SDS011;6243;51.244;6.774;2023-04-01T04:51:13;0.97;;;0.50;;
12356;SDS011;6243;51.244;6.774;2023-04-01T04:53:39;0.70;;;0.70;;
12356;SDS011;6243;51.244;6.774;2023-04-01T04:56:05;0.70;;;0.70;;
12356;SDS011;6243;51.244;6.774;2023-04-01T04:58:31;0.90;;;0.90;;
12356;SDS011;6243;51.244;6.774;2023-04-01T05:00:57;1.20;;;1.00;;
12356;SDS011;6243;51.244;6.774;2023-04-01T05:03:23;0.83;;;0.83;;
12356;SDS011;6243;51.244;6.774;2023-04-01T05:05:49;1.47;;;0.90;;
12356;SDS011;6243;51.244;6.774;2023-04-01T05:08:15;1.00;;;0.97;;
12356;SDS011;6243;51.244;6.774;2023-04-01T05:10:41;1.37;;;1.10;;
12356;SDS011;6243;51.244;6.774;2023-04-01T05:13:06;1.63;;;1.13;;
12356;SDS011;6243;51.244;6.774;2023-04-01T05:15:32;1.27;;;1.17;;
12356;SDS011;6243;51.244;6.774;2023-04-01T05:17:59;1.10;;;1.10;;
12356;SDS011;6243;51.244;6.774;2023-04-01T05:20:24;1.10;;;1.00;;
12356;SDS011;6243;51.244;6.774;2023-04-01T05:22:50;1.03;;;1.00;;
12356;SDS011;6243;51.244;6.774;2023-04-01T05:25:20;1.43;;;1.33;;
12356;SDS011;6243;51.244;6.774;2023-04-01T05:27:45;1.67;;;1.57;;
12356;SDS011;6243;51.244;6.774;2023-04-01T05:30:11;1.40;;;1.30;;
12356;SDS011;6243;51.244;6.774;2023-04-01T05:32:37;1.07;;;1.07;;
12356;SDS011;6243;51.244;6.774;2023-04-01T05:35:04;1.50;;;1.40;;
12356;SDS011;6243;51.244;6.774;2023-04-01T05:37:30;1.80;;;1.70;;
12356;SDS011;6243;51.244;6.774;2023-04-01T05:39:56;1.73;;;1.37;;
12356;SDS011;6243;51.244;6.774;2023-04-01T05:42:21;1.77;;;1.40;;
12356;SDS011;6243;51.244;6.774;2023-04-01T05:44:47;1.37;;;1.27;;
12356;SDS011;6243;51.244;6.774;2023-04-01T05:47:12;1.77;;;1.33;;
12356;SDS011;6243;51.244;6.774;2023-04-01T05:49:38;3.30;;;2.07;;
12356;SDS011;6243;51.244;6.774;2023-04-01T05:52:04;1.83;;;1.67;;
12356;SDS011;6243;51.244;6.774;2023-04-01T05:54:30;2.23;;;1.60;;
12356;SDS011;6243;51.244;6.774;2023-04-01T05:56:55;1.80;;;1.60;;
12356;SDS011;6243;51.244;6.774;2023-04-01T05:59:21;2.70;;;1.87;;
12356;SDS011;6243;51.244;6.774;2023-04-01T06:01:46;2.33;;;2.00;;
12356;SDS011;6243;51.244;6.774;2023-04-01T06:04:13;2.50;;;1.97;;
12356;SDS011;6243;51.244;6.774;2023-04-01T06:06:39;2.40;;;2.07;;
12356;SDS011;6243;51.244;6.774;2023-04-01T06:09:10;2.80;;;1.90;;
12356;SDS011;6243;51.244;6.774;2023-04-01T06:11:40;2.43;;;2.23;;
12356;SDS011;6243;51.244;6.774;2023-04-01T06:14:20;2.30;;;2.10;;
12356;SDS011;6243;51.244;6.774;2023-04-01T06:16:57;2.37;;;2.00;;
12356;SDS011;6243;51.244;6.774;2023-04-01T06:19:36;2.57;;;2.37;;
12356;SDS011;6243;51.244;6.774;2023-04-01T06:22:17;2.60;;;2.20;;
12356;SDS011;6243;51.244;6.774;2023-04-01T06:28:16;2.87;;;2.20;;
12356;SDS011;6243;51.244;6.774;2023-04-01T06:31:06;3.67;;;2.27;;
12356;SDS011;6243;51.244;6.774;2023-04-01T06:33:43;1.90;;;1.80;;
12356;SDS011;6243;51.244;6.774;2023-04-01T06:36:24;1.83;;;1.73;;
12356;SDS011;6243;51.244;6.774;2023-04-01T06:39:06;2.67;;;2.20;;
12356;SDS011;6243;51.244;6.774;2023-04-01T06:42:00;1.97;;;1.83;;
12356;SDS011;6243;51.244;6.774;2023-04-01T06:44:34;2.03;;;1.83;;
12356;SDS011;6243;51.244;6.774;2023-04-01T06:47:09;2.07;;;1.87;;
12356;SDS011;6243;51.244;6.774;2023-04-01T06:49:48;1.97;;;1.87;;
12356;SDS011;6243;51.244;6.774;2023-04-01T06:52:23;1.90;;;1.80;;
12356;SDS011;6243;51.244;6.774;2023-04-01T06:54:57;1.60;;;1.50;;
12356;SDS011;6243;51.244;6.774;2023-04-01T06:57:31;1.47;;;1.37;;
12356;SDS011;6243;51.244;6.774;2023-04-01T07:00:01;1.10;;;1.10;;
12356;SDS011;6243;51.244;6.774;2023-04-01T07:02:31;1.40;;;1.30;;
12356;SDS011;6243;51.244;6.774;2023-04-01T07:05:01;1.63;;;1.53;;
12356;SDS011;6243;51.244;6.774;2023-04-01T07:07:29;1.47;;;1.10;;
12356;SDS011;6243;51.244;6.774;2023-04-01T07:10:02;1.40;;;1.30;;
12356;SDS011;6243;51.244;6.774;2023-04-01T07:12:38;1.30;;;1.30;;
12356;SDS011;6243;51.244;6.774;2023-04-01T07:15:13;1.00;;;1.00;;
12356;SDS011;6243;51.244;6.774;2023-04-01T07:17:44;2.10;;;1.40;;
12356;SDS011;6243;51.244;6.774;2023-04-01T07:20:13;1.87;;;1.40;;
12356;SDS011;6243;51.244;6.774;2023-04-01T07:22:45;1.23;;;1.23;;
12356;SDS011;6243;51.244;6.774;2023-04-01T07:25:15;1.37;;;1.27;;
12356;SDS011;6243;51.244;6.774;2023-04-01T07:27:44;1.33;;;1.23;;
12356;SDS011;6243;51.244;6.774;2023-04-01T07:30:13;1.37;;;1.30;;
12356;SDS011;6243;51.244;6.774;2023-04-01T07:32:41;1.70;;;1.20;;
12356;SDS011;6243;51.244;6.774;2023-04-01T07:35:13;1.30;;;1.20;;
12356;SDS011;6243;51.244;6.774;2023-04-01T07:37:49;1.37;;;1.20;;
12356;SDS011;6243;51.244;6.774;2023-04-01T07:40:24;1.60;;;1.50;;
12356;SDS011;6243;51.244;6.774;2023-04-01T07:43:02;1.20;;;1.20;;
12356;SDS011;6243;51.244;6.774;2023-04-01T07:45:38;1.40;;;1.30;;
12356;SDS011;6243;51.244;6.774;2023-04-01T07:48:15;1.83;;;1.33;;
12356;SDS011;6243;51.244;6.774;2023-04-01T07:50:50;1.70;;;1.60;;
12356;SDS011;6243;51.244;6.774;2023-04-01T07:53:24;1.97;;;1.60;;
12356;SDS011;6243;51.244;6.774;2023-04-01T07:55:54;1.47;;;1.37;;
12356;SDS011;6243;51.244;6.774;2023-04-01T07:58:30;1.50;;;1.40;;
12356;SDS011;6243;51.244;6.774;2023-04-01T08:01:06;1.20;;;1.10;;
12356;SDS011;6243;51.244;6.774;2023-04-01T08:03:43;1.13;;;1.13;;
12356;SDS011;6243;51.244;6.774;2023-04-01T08:06:23;1.23;;;1.23;;
12356;SDS011;6243;51.244;6.774;2023-04-01T08:08:56;1.57;;;1.40;;
12356;SDS011;6243;51.244;6.774;2023-04-01T08:11:33;1.50;;;1.40;;
12356;SDS011;6243;51.244;6.774;2023-04-01T08:14:11;1.40;;;1.30;;
12356;SDS011;6243;51.244;6.774;2023-04-01T08:16:46;1.23;;;1.20;;
12356;SDS011;6243;51.244;6.774;2023-04-01T08:19:21;1.10;;;1.03;;
12356;SDS011;6243;51.244;6.774;2023-04-01T08:21:57;1.80;;;1.50;;
12356;SDS011;6243;51.244;6.774;2023-04-01T08:24:29;1.60;;;1.50;;
12356;SDS011;6243;51.244;6.774;2023-04-01T08:27:01;1.40;;;1.33;;
12356;SDS011;6243;51.244;6.774;2023-04-01T08:29:33;2.40;;;1.60;;
12356;SDS011;6243;51.244;6.774;2023-04-01T08:32:05;1.67;;;1.57;;
12356;SDS011;6243;51.244;6.774;2023-04-01T08:34:36;1.97;;;1.53;;
12356;SDS011;6243;51.244;6.774;2023-04-01T08:37:04;1.60;;;1.50;;
12356;SDS011;6243;51.244;6.774;2023-04-01T08:39:36;2.00;;;1.50;;
12356;SDS011;6243;51.244;6.774;2023-04-01T08:42:13;1.87;;;1.77;;
12356;SDS011;6243;51.244;6.774;2023-04-01T08:47:59;2.30;;;2.20;;
12356;SDS011;6243;51.244;6.774;2023-04-01T08:50:45;2.50;;;2.30;;
12356;SDS011;6243;51.244;6.774;2023-04-01T08:53:29;2.40;;;2.20;;
12356;SDS011;6243;51.244;6.774;2023-04-01T08:56:11;2.50;;;2.30;;
12356;SDS011;6243;51.244;6.774;2023-04-01T08:58:46;2.80;;;2.60;;
12356;SDS011;6243;51.244;6.774;2023-04-01T09:04:25;3.20;;;3.00;;
12356;SDS011;6243;51.244;6.774;2023-04-01T09:07:05;3.70;;;3.40;;
12356;SDS011;6243;51.244;6.774;2023-04-01T09:09:55;3.53;;;3.33;;
12356;SDS011;6243;51.244;6.774;2023-04-01T09:12:55;3.30;;;3.10;;
12356;SDS011;6243;51.244;6.774;2023-04-01T09:15:50;3.70;;;3.40;;
12356;SDS011;6243;51.244;6.774;2023-04-01T09:18:35;4.50;;;3.87;;
12356;SDS011;6243;51.244;6.774;2023-04-01T09:21:21;4.03;;;3.73;;
12356;SDS011;6243;51.244;6.774;2023-04-01T09:24:07;4.00;;;3.70;;
12356;SDS011;6243;51.244;6.774;2023-04-01T09:26:58;3.37;;;3.17;;
12356;SDS011;6243;51.244;6.774;2023-04-01T09:29:34;4.67;;;3.90;;
12356;SDS011;6243;51.244;6.774;2023-04-01T09:32:22;3.70;;;3.40;;
12356;SDS011;6243;51.244;6.774;2023-04-01T09:35:02;4.13;;;3.83;;
12356;SDS011;6243;51.244;6.774;2023-04-01T09:37:49;4.60;;;4.20;;
12356;SDS011;6243;51.244;6.774;2023-04-01T09:40:18;4.40;;;4.00;;
12356;SDS011;6243;51.244;6.774;2023-04-01T09:42:58;4.00;;;3.70;;
12356;SDS011;6243;51.244;6.774;2023-04-01T09:45:42;4.40;;;4.00;;
12356;SDS011;6243;51.244;6.774;2023-04-01T09:48:15;4.93;;;4.47;;
12356;SDS011;6243;51.244;6.774;2023-04-01T09:50:53;5.63;;;5.13;;
12356;SDS011;6243;51.244;6.774;2023-04-01T09:53:40;5.10;;;4.70;;
12356;SDS011;6243;51.244;6.774;2023-04-01T09:59:18;5.97;;;5.47;;
12356;SDS011;6243;51.244;6.774;2023-04-01T10:02:13;5.30;;;4.83;;
12356;SDS011;6243;51.244;6.774;2023-04-01T10:08:33;6.57;;;5.90;;
12356;SDS011;6243;51.244;6.774;2023-04-01T10:14:25;6.37;;;5.80;;
12356;SDS011;6243;51.244;6.774;2023-04-01T10:17:20;5.40;;;4.90;;
12356;SDS011;6243;51.244;6.774;2023-04-01T10:26:12;6.10;;;5.50;;
12356;SDS011;6243;51.244;6.774;2023-04-01T10:29:07;5.40;;;4.90;;
12356;SDS011;6243;51.244;6.774;2023-04-01T10:32:01;5.23;;;4.83;;
12356;SDS011;6243;51.244;6.774;2023-04-01T10:34:56;4.97;;;4.57;;
12356;SDS011;6243;51.244;6.774;2023-04-01T10:53:11;4.23;;;3.87;;
12356;SDS011;6243;51.244;6.774;2023-04-01T10:55:58;4.30;;;3.90;;
12356;SDS011;6243;51.244;6.774;2023-04-01T11:05:34;4.63;;;4.23;;
12356;SDS011;6243;51.244;6.774;2023-04-01T11:08:39;4.80;;;4.40;;
12356;SDS011;6243;51.244;6.774;2023-04-01T11:27:03;4.57;;;4.17;;
12356;SDS011;6243;51.244;6.774;2023-04-01T11:29:49;4.53;;;4.13;;
12356;SDS011;6243;51.244;6.774;2023-04-01T11:32:31;5.10;;;4.70;;
12356;SDS011;6243;51.244;6.774;2023-04-01T11:35:17;4.80;;;4.40;;
12356;SDS011;6243;51.244;6.774;2023-04-01T11:38:01;5.03;;;4.63;;
12356;SDS011;6243;51.244;6.774;2023-04-01T11:40:39;5.30;;;4.60;;
12356;SDS011;6243;51.244;6.774;2023-04-01T11:43:15;4.03;;;3.73;;
12356;SDS011;6243;51.244;6.774;2023-04-01T11:45:51;3.87;;;3.57;;
12356;SDS011;6243;51.244;6.774;2023-04-01T11:51:22;4.40;;;4.10;;
12356;SDS011;6243;51.244;6.774;2023-04-01T11:54:11;4.00;;;3.70;;
12356;SDS011;6243;51.244;6.774;2023-04-01T11:57:04;5.13;;;4.63;;
12356;SDS011;6243;51.244;6.774;2023-04-01T11:59:48;4.63;;;4.23;;
12356;SDS011;6243;51.244;6.774;2023-04-01T12:02:25;5.50;;;5.00;;
12356;SDS011;6243;51.244;6.774;2023-04-01T12:04:58;5.03;;;4.60;;
12356;SDS011;6243;51.244;6.774;2023-04-01T12:07:41;5.67;;;5.20;;
12356;SDS011;6243;51.244;6.774;2023-04-01T12:10:18;5.33;;;4.90;;
12356;SDS011;6243;51.244;6.774;2023-04-01T12:12:46;5.23;;;4.83;;
12356;SDS011;6243;51.244;6.774;2023-04-01T12:15:23;5.90;;;5.40;;
12356;SDS011;6243;51.244;6.774;2023-04-01T12:17:56;5.57;;;5.07;;
12356;SDS011;6243;51.244;6.774;2023-04-01T12:20:28;5.63;;;5.23;;
12356;SDS011;6243;51.244;6.774;2023-04-01T12:23:09;6.60;;;5.93;;
12356;SDS011;6243;51.244;6.774;2023-04-01T12:28:39;6.10;;;5.50;;
12356;SDS011;6243;51.244;6.774;2023-04-01T12:31:27;6.13;;;5.63;;
12356;SDS011;6243;51.244;6.774;2023-04-01T12:34:13;6.13;;;5.63;;
12356;SDS011;6243;51.244;6.774;2023-04-01T12:36:59;5.53;;;5.10;;
12356;SDS011;6243;51.244;6.774;2023-04-01T12:39:37;6.30;;;4.90;;
12356;SDS011;6243;51.244;6.774;2023-04-01T12:42:18;5.00;;;4.60;;
12356;SDS011;6243;51.244;6.774;2023-04-01T12:45:00;5.80;;;5.30;;
12356;SDS011;6243;51.244;6.774;2023-04-01T12:47:54;4.70;;;4.30;;
12356;SDS011;6243;51.244;6.774;2023-04-01T12:50:37;5.33;;;4.90;;
12356;SDS011;6243;51.244;6.774;2023-04-01T12:53:18;4.67;;;4.27;;
12356;SDS011;6243;51.244;6.774;2023-04-01T12:55:58;4.87;;;3.67;;
12356;SDS011;6243;51.244;6.774;2023-04-01T12:58:35;4.60;;;4.20;;
12356;SDS011;6243;51.244;6.774;2023-04-01T13:04:19;4.93;;;4.53;;
12356;SDS011;6243;51.244;6.774;2023-04-01T13:10:19;3.80;;;3.50;;
12356;SDS011;6243;51.244;6.774;2023-04-01T13:15:55;4.57;;;4.20;;
12356;SDS011;6243;51.244;6.774;2023-04-01T13:18:26;4.27;;;3.97;;
12356;SDS011;6243;51.244;6.774;2023-04-01T13:21:03;4.03;;;3.63;;
12356;SDS011;6243;51.244;6.774;2023-04-01T13:23:41;3.50;;;3.30;;
12356;SDS011;6243;51.244;6.774;2023-04-01T13:26:18;3.70;;;3.40;;
12356;SDS011;6243;51.244;6.774;2023-04-01T13:28:50;3.43;;;3.23;;
12356;SDS011;6243;51.244;6.774;2023-04-01T13:31:25;3.40;;;3.10;;
12356;SDS011;6243;51.244;6.774;2023-04-01T13:34:21;2.93;;;2.73;;
12356;SDS011;6243;51.244;6.774;2023-04-01T13:37:02;2.97;;;2.77;;
12356;SDS011;6243;51.244;6.774;2023-04-01T13:39:46;3.20;;;2.90;;
12356;SDS011;6243;51.244;6.774;2023-04-01T13:42:23;2.97;;;2.77;;
12356;SDS011;6243;51.244;6.774;2023-04-01T13:44:55;3.37;;;3.07;;
12356;SDS011;6243;51.244;6.774;2023-04-01T13:47:40;3.00;;;2.80;;
12356;SDS011;6243;51.244;6.774;2023-04-01T13:50:26;3.80;;;3.50;;
12356;SDS011;6243;51.244;6.774;2023-04-01T13:53:21;3.20;;;3.00;;
12356;SDS011;6243;51.244;6.774;2023-04-01T13:56:12;3.10;;;2.90;;
12356;SDS011;6243;51.244;6.774;2023-04-01T13:58:49;3.27;;;3.07;;
12356;SDS011;6243;51.244;6.774;2023-04-01T14:01:25;3.20;;;3.00;;
12356;SDS011;6243;51.244;6.774;2023-04-01T14:06:57;2.90;;;2.70;;
12356;SDS011;6243;51.244;6.774;2023-04-01T14:09:34;2.90;;;2.70;;
12356;SDS011;6243;51.244;6.774;2023-04-01T14:12:19;3.00;;;2.80;;
12356;SDS011;6243;51.244;6.774;2023-04-01T14:14:58;2.80;;;2.60;;
12356;SDS011;6243;51.244;6.774;2023-04-01T14:17:38;2.80;;;2.60;;
12356;SDS011;6243;51.244;6.774;2023-04-01T14:20:22;3.00;;;2.70;;
12356;SDS011;6243;51.244;6.774;2023-04-01T14:23:05;3.07;;;2.87;;
12356;SDS011;6243;51.244;6.774;2023-04-01T14:26:00;3.33;;;2.60;;
12356;SDS011;6243;51.244;6.774;2023-04-01T14:28:36;3.00;;;2.70;;
12356;SDS011;6243;51.244;6.774;2023-04-01T14:31:16;2.70;;;2.50;;
12356;SDS011;6243;51.244;6.774;2023-04-01T14:33:51;2.20;;;2.10;;
12356;SDS011;6243;51.244;6.774;2023-04-01T14:36:48;2.30;;;2.10;;
12356;SDS011;6243;51.244;6.774;2023-04-01T14:39:22;1.90;;;1.80;;
12356;SDS011;6243;51.244;6.774;2023-04-01T14:42:03;3.30;;;2.27;;
12356;SDS011;6243;51.244;6.774;2023-04-01T14:44:49;2.37;;;2.23;;
12356;SDS011;6243;51.244;6.774;2023-04-01T14:47:28;2.07;;;1.97;;
12356;SDS011;6243;51.244;6.774;2023-04-01T14:50:08;2.30;;;2.10;;
12356;SDS011;6243;51.244;6.774;2023-04-01T14:52:38;2.17;;;1.97;;
12356;SDS011;6243;51.244;6.774;2023-04-01T14:55:27;2.33;;;2.13;;
12356;SDS011;6243;51.244;6.774;2023-04-01T14:57:59;2.33;;;2.13;;
12356;SDS011;6243;51.244;6.774;2023-04-01T15:00:39;2.30;;;2.17;;
12356;SDS011;6243;51.244;6.774;2023-04-01T15:03:12;2.03;;;1.93;;
12356;SDS011;6243;51.244;6.774;2023-04-01T15:05:45;2.53;;;2.33;;
12356;SDS011;6243;51.244;6.774;2023-04-01T15:08:17;2.53;;;2.33;;
12356;SDS011;6243;51.244;6.774;2023-04-01T15:14:09;2.53;;;2.10;;
12356;SDS011;6243;51.244;6.774;2023-04-01T15:16:49;2.07;;;1.97;;
12356;SDS011;6243;51.244;6.774;2023-04-01T15:19:29;2.27;;;2.17;;
12356;SDS011;6243;51.244;6.774;2023-04-01T15:22:12;2.50;;;2.30;;
12356;SDS011;6243;51.244;6.774;2023-04-01T15:27:59;2.27;;;2.10;;
12356;SDS011;6243;51.244;6.774;2023-04-01T15:30:32;2.50;;;2.30;;
12356;SDS011;6243;51.244;6.774;2023-04-01T15:33:08;2.43;;;2.23;;
12356;SDS011;6243;51.244;6.774;2023-04-01T15:35:43;3.20;;;2.67;;
12356;SDS011;6243;51.244;6.774;2023-04-01T15:38:19;2.63;;;2.43;;
12356;SDS011;6243;51.244;6.774;2023-04-01T15:40:57;2.30;;;2.13;;
12356;SDS011;6243;51.244;6.774;2023-04-01T15:43:31;2.20;;;1.97;;
12356;SDS011;6243;51.244;6.774;2023-04-01T15:46:32;2.30;;;2.20;;
12356;SDS011;6243;51.244;6.774;2023-04-01T15:49:11;2.67;;;2.47;;
12356;SDS011;6243;51.244;6.774;2023-04-01T15:51:47;2.17;;;2.07;;
12356;SDS011;6243;51.244;6.774;2023-04-01T15:54:27;2.50;;;2.30;;
12356;SDS011;6243;51.244;6.774;2023-04-01T15:57:15;2.40;;;2.23;;
12356;SDS011;6243;51.244;6.774;2023-04-01T15:59:53;2.53;;;2.43;;
12356;SDS011;6243;51.244;6.774;2023-04-01T16:02:32;2.90;;;2.70;;
12356;SDS011;6243;51.244;6.774;2023-04-01T16:05:07;4.00;;;3.00;;
12356;SDS011;6243;51.244;6.774;2023-04-01T16:07:41;2.77;;;2.57;;
12356;SDS011;6243;51.244;6.774;2023-04-01T16:10:21;3.40;;;3.20;;
12356;SDS011;6243;51.244;6.774;2023-04-01T16:12:58;2.90;;;2.70;;
12356;SDS011;6243;51.244;6.774;2023-04-01T16:15:37;3.00;;;2.70;;
12356;SDS011;6243;51.244;6.774;2023-04-01T16:18:21;3.20;;;3.00;;
12356;SDS011;6243;51.244;6.774;2023-04-01T16:21:02;3.23;;;3.03;;
12356;SDS011;6243;51.244;6.774;2023-04-01T16:23:35;3.23;;;3.03;;
12356;SDS011;6243;51.244;6.774;2023-04-01T16:26:05;3.57;;;3.27;;
12356;SDS011;6243;51.244;6.774;2023-04-01T16:28:34;3.43;;;3.17;;
12356;SDS011;6243;51.244;6.774;2023-04-01T16:31:05;3.90;;;3.60;;
12356;SDS011;6243;51.244;6.774;2023-04-01T16:33:38;3.43;;;3.13;;
12356;SDS011;6243;51.244;6.774;2023-04-01T16:36:13;3.50;;;3.20;;
12356;SDS011;6243;51.244;6.774;2023-04-01T16:38:55;2.97;;;2.77;;
12356;SDS011;6243;51.244;6.774;2023-04-01T16:41:35;3.47;;;3.17;;
12356;SDS011;6243;51.244;6.774;2023-04-01T16:44:09;3.27;;;2.97;;
12356;SDS011;6243;51.244;6.774;2023-04-01T16:46:43;3.00;;;2.80;;
12356;SDS011;6243;51.244;6.774;2023-04-01T16:49:17;2.50;;;2.30;;
12356;SDS011;6243;51.244;6.774;2023-04-01T16:51:53;2.70;;;2.50;;
12356;SDS011;6243;51.244;6.774;2023-04-01T16:54:28;2.60;;;2.50;;
12356;SDS011;6243;51.244;6.774;2023-04-01T16:57:10;2.70;;;2.50;;
12356;SDS011;6243;51.244;6.774;2023-04-01T16:59:45;2.40;;;2.30;;
12356;SDS011;6243;51.244;6.774;2023-04-01T17:02:13;2.93;;;2.67;;
12356;SDS011;6243;51.244;6.774;2023-04-01T17:04:43;2.80;;;2.60;;
12356;SDS011;6243;51.244;6.774;2023-04-01T17:07:20;2.70;;;2.50;;
12356;SDS011;6243;51.244;6.774;2023-04-01T17:09:56;2.67;;;2.47;;